Time,TemperatureF,DewpointF,PressureIn,WindDirection,WindDirectionDegrees,WindSpeedMPH,WindSpeedGustMPH,Humidity,HourlyPrecipIn,Conditions,Clouds,dailyrainin,SoftwareType,DateUTC
2013-06-28 00:02:00,57.8,54.6,30.08,WNW,290,11.5,11.5,89,0.00,RA,,0.00,WeatherDisplay:10.37,2013-06-27 23:02:00,
2013-06-28 00:07:00,57.8,54.6,30.08,WNW,283,11.5,11.5,89,0.00,RA,,0.00,WeatherDisplay:10.37,2013-06-27 23:07:00,
2013-06-28 00:12:00,57.8,54.6,30.08,West,271,11.5,11.5,89,0.00,CLR,,0.00,WeatherDisplay:10.37,2013-06-27 23:12:00,
2013-06-28 00:17:00,57.8,54.6,30.07,SE,124,8.1,8.1,89,0.00,CLR,,0.00,WeatherDisplay:10.37,2013-06-27 23:17:00,
2013-06-28 00:22:00,57.7,54.5,30.07,West,277,15.0,15.0,89,0.00,CLR,,0.00,WeatherDisplay:10.37,2013-06-27 23:22:00,
2013-06-28 00:27:00,57.7,54.5,30.07,WNW,292,15.0,15.0,89,0.00,CLR,,0.00,WeatherDisplay:10.37,2013-06-27 23:27:00,
2013-06-28 00:32:00,57.7,54.5,30.07,WSW,248,12.0,12.0,89,0.00,CLR,,0.00,WeatherDisplay:10.37,2013-06-27 23:32:00,
2013-06-28 00:37:00,57.7,54.5,30.07,West,269,9.0,9.0,89,0.00,CLR,,0.00,WeatherDisplay:10.37,2013-06-27 23:37:00,
2013-06-28 00:42:00,57.7,54.5,30.07,West,272,11.5,11.5,89,0.00,CLR,,0.00,WeatherDisplay:10.37,2013-06-27 23:42:00,
2013-06-28 00:47:00,57.7,54.5,30.07,WSW,254,11.5,11.5,89,0.00,CLR,,0.00,WeatherDisplay:10.37,2013-06-27 23:47:00,
2013-06-28 00:52:00,57.6,54.4,30.07,WSW,258,11.0,11.0,89,0.00,CLR,,0.00,WeatherDisplay:10.37,2013-06-27 23:52:00,
2013-06-28 00:57:00,57.6,54.4,30.07,WSW,244,11.5,11.5,89,0.00,CLR,,0.00,WeatherDisplay:10.37,2013-06-27 23:57:00,
2013-06-28 01:02:00,57.6,54.4,30.06,WSW,248,11.5,11.5,89,0.00,CLR,,0.00,WeatherDisplay:10.37,2013-06-28 00:02:00,
2013-06-28 01:07:00,57.5,54.3,30.06,West,265,11.5,11.5,89,0.00,CLR,,0.00,WeatherDisplay:10.37,2013-06-28 00:07:00,
2013-06-28 01:12:00,57.5,54.3,30.06,WSW,250,11.5,11.5,89,0.00,CLR,,0.00,WeatherDisplay:10.37,2013-06-28 00:12:00,
2013-06-28 01:17:00,57.5,54.3,30.06,West,267,11.5,11.5,89,0.00,CLR,,0.00,WeatherDisplay:10.37,2013-06-28 00:17:00,
2013-06-28 01:22:00,57.5,54.3,30.06,WSW,242,12.7,12.7,89,0.00,CLR,,0.00,WeatherDisplay:10.37,2013-06-28 00:22:00,
2013-06-28 01:27:00,57.5,54.3,30.06,West,280,11.5,11.5,89,0.00,CLR,,0.00,WeatherDisplay:10.37,2013-06-28 00:27:00,
2013-06-28 01:32:00,57.4,54.2,30.06,WSW,252,9.2,9.2,89,0.00,CLR,,0.00,WeatherDisplay:10.37,2013-06-28 00:32:00,
2013-06-28 01:37:00,57.4,54.2,30.06,West,263,10.4,10.4,89,0.00,CLR,,0.00,WeatherDisplay:10.37,2013-06-28 00:37:00,
2013-06-28 01:42:00,57.3,54.1,30.06,SW,232,13.0,13.0,89,0.00,CLR,,0.00,WeatherDisplay:10.37,2013-06-28 00:42:00,
2013-06-28 01:47:00,57.2,54.0,30.05,West,269,11.0,11.0,89,0.00,CLR,,0.00,WeatherDisplay:10.37,2013-06-28 00:47:00,
2013-06-28 01:52:00,57.2,54.0,30.05,SW,236,11.5,11.5,89,0.00,CLR,,0.00,WeatherDisplay:10.37,2013-06-28 00:52:00,
2013-06-28 01:57:00,57.2,54.3,30.05,SSW,211,10.4,10.4,90,0.00,CLR,,0.00,WeatherDisplay:10.37,2013-06-28 00:57:00,
2013-06-28 02:02:00,57.2,54.3,30.05,West,261,11.5,11.5,90,0.00,CLR,,0.00,WeatherDisplay:10.37,2013-06-28 01:02:00,
2013-06-28 02:07:00,57.2,54.3,30.05,WSW,254,10.4,10.4,90,0.00,CLR,,0.00,WeatherDisplay:10.37,2013-06-28 01:07:00,
2013-06-28 02:12:00,57.1,54.2,30.05,SSW,199,11.5,11.5,90,0.00,CLR,,0.00,WeatherDisplay:10.37,2013-06-28 01:12:00,
2013-06-28 02:17:00,57.0,54.1,30.04,WSW,245,9.2,9.2,90,0.00,CLR,,0.00,WeatherDisplay:10.37,2013-06-28 01:17:00,
2013-06-28 02:22:00,56.9,54.0,30.04,West,275,10.4,10.4,90,0.00,CLR,,0.00,WeatherDisplay:10.37,2013-06-28 01:22:00,
2013-06-28 02:27:00,56.9,54.0,30.04,West,275,11.5,11.5,90,0.00,CLR,,0.00,WeatherDisplay:10.37,2013-06-28 01:27:00,
2013-06-28 02:32:00,56.8,53.9,30.04,SW,215,11.5,11.5,90,0.00,CLR,,0.00,WeatherDisplay:10.37,2013-06-28 01:32:00,
2013-06-28 02:38:00,56.8,53.9,30.04,WSW,250,11.5,11.5,90,0.00,CLR,,0.00,WeatherDisplay:10.37,2013-06-28 01:38:00,
2013-06-28 02:43:00,56.8,53.9,30.04,West,271,11.5,11.5,90,0.00,CLR,,0.00,WeatherDisplay:10.37,2013-06-28 01:43:00,
2013-06-28 02:48:00,56.7,54.1,30.03,WSW,244,10.4,10.4,91,0.00,CLR,,0.00,WeatherDisplay:10.37,2013-06-28 01:48:00,
2013-06-28 02:53:00,56.7,54.1,30.03,West,274,6.9,6.9,91,0.00,CLR,,0.00,WeatherDisplay:10.37,2013-06-28 01:53:00,
2013-06-28 02:58:00,56.7,54.1,30.03,West,267,11.5,11.5,91,0.00,CLR,,0.00,WeatherDisplay:10.37,2013-06-28 01:58:00,
2013-06-28 03:03:00,56.6,54.0,30.03,SSW,210,10.4,10.4,91,0.00,CLR,,0.00,WeatherDisplay:10.37,2013-06-28 02:03:00,
2013-06-28 03:08:00,56.6,54.0,30.03,West,278,9.2,9.2,91,0.00,CLR,,0.00,WeatherDisplay:10.37,2013-06-28 02:08:00,
2013-06-28 03:13:00,56.6,54.0,30.03,West,277,10.4,10.4,91,0.00,CLR,,0.00,WeatherDisplay:10.37,2013-06-28 02:13:00,
2013-06-28 03:18:00,56.5,53.9,30.02,SSE,150,10.4,10.4,91,0.00,CLR,,0.00,WeatherDisplay:10.37,2013-06-28 02:18:00,
2013-06-28 03:23:00,56.4,53.8,30.02,West,266,11.5,11.5,91,0.00,CLR,,0.00,WeatherDisplay:10.37,2013-06-28 02:23:00,
2013-06-28 03:28:00,56.4,53.8,30.02,WNW,288,11.5,11.5,91,0.00,CLR,,0.00,WeatherDisplay:10.37,2013-06-28 02:28:00,
2013-06-28 03:34:00,56.3,54.0,30.02,West,272,9.2,9.2,92,0.00,CLR,,0.00,WeatherDisplay:10.37,2013-06-28 02:34:00,
2013-06-28 03:39:00,56.3,54.0,30.02,West,281,11.0,11.0,92,0.00,CLR,,0.00,WeatherDisplay:10.37,2013-06-28 02:39:00,
2013-06-28 03:44:00,56.3,54.0,30.02,WNW,285,10.4,10.4,92,0.00,CLR,,0.00,WeatherDisplay:10.37,2013-06-28 02:44:00,
2013-06-28 03:49:00,56.2,53.9,30.02,WNW,288,12.7,12.7,92,0.00,CLR,,0.00,WeatherDisplay:10.37,2013-06-28 02:49:00,
2013-06-28 03:54:00,56.2,53.9,30.02,West,269,16.1,16.1,92,0.00,CLR,,0.00,WeatherDisplay:10.37,2013-06-28 02:54:00,
2013-06-28 03:59:00,56.2,53.9,30.02,SSW,197,11.5,11.5,92,0.00,CLR,,0.00,WeatherDisplay:10.37,2013-06-28 02:59:00,
2013-06-28 04:04:00,56.2,53.9,30.02,West,278,7.0,7.0,92,0.00,CLR,,0.00,WeatherDisplay:10.37,2013-06-28 03:04:00,
2013-06-28 04:10:00,56.2,53.9,30.02,NW,314,11.5,11.5,92,0.00,CLR,,0.00,WeatherDisplay:10.37,2013-06-28 03:10:00,
2013-06-28 04:15:00,56.2,53.9,30.01,WNW,294,9.2,9.2,92,0.00,CLR,,0.00,WeatherDisplay:10.37,2013-06-28 03:15:00,
2013-06-28 04:20:00,56.2,53.9,30.01,WSW,244,10.4,10.4,92,0.00,CLR,,0.00,WeatherDisplay:10.37,2013-06-28 03:20:00,
2013-06-28 04:25:00,56.2,53.9,30.01,WNW,290,10.4,10.4,92,0.00,CLR,,0.00,WeatherDisplay:10.37,2013-06-28 03:25:00,
2013-06-28 04:30:00,56.2,53.9,30.00,WSW,255,11.5,11.5,92,0.00,CLR,,0.00,WeatherDisplay:10.37,2013-06-28 03:30:00,
2013-06-28 04:35:00,56.2,53.9,30.00,West,276,8.0,8.0,92,0.00,CLR,,0.00,WeatherDisplay:10.37,2013-06-28 03:35:00,
2013-06-28 04:40:00,56.2,53.9,30.00,WSW,252,6.9,6.9,92,0.00,CLR,,0.00,WeatherDisplay:10.37,2013-06-28 03:40:00,
2013-06-28 04:45:00,56.2,53.9,30.00,West,271,9.2,9.2,92,0.00,CLR,,0.00,WeatherDisplay:10.37,2013-06-28 03:45:00,
2013-06-28 04:50:00,56.2,53.9,30.00,West,270,9.2,9.2,92,0.00,CLR,,0.00,WeatherDisplay:10.37,2013-06-28 03:50:00,
2013-06-28 04:55:00,56.2,53.9,30.00,West,271,11.5,11.5,92,0.00,CLR,,0.00,WeatherDisplay:10.37,2013-06-28 03:55:00,
2013-06-28 05:00:00,56.2,53.9,30.00,West,276,7.0,7.0,92,0.00,CLR,,0.00,WeatherDisplay:10.37,2013-06-28 04:00:00,
2013-06-28 05:01:00,56.2,53.9,30.00,West,274,10.4,10.4,92,0.00,CLR,,0.00,WeatherDisplay:10.37,2013-06-28 04:01:00,
2013-06-28 05:02:00,56.2,53.9,30.00,WNW,289,9.2,9.2,92,0.00,CLR,,0.00,WeatherDisplay:10.37,2013-06-28 04:02:00,
2013-06-28 05:03:00,56.2,53.9,30.00,West,277,8.1,8.1,92,0.00,CLR,,0.00,WeatherDisplay:10.37,2013-06-28 04:03:00,
2013-06-28 05:08:00,56.2,53.9,30.00,WSW,238,8.1,8.1,92,0.00,CLR,,0.00,WeatherDisplay:10.37,2013-06-28 04:08:00,
2013-06-28 05:13:00,56.3,54.0,30.00,West,271,8.1,8.1,92,0.00,CLR,,0.00,WeatherDisplay:10.37,2013-06-28 04:13:00,
2013-06-28 05:18:00,56.3,54.0,29.99,West,274,8.1,8.1,92,0.00,CLR,,0.00,WeatherDisplay:10.37,2013-06-28 04:18:00,
2013-06-28 05:23:00,56.3,54.0,29.99,WSW,254,9.2,9.2,92,0.00,CLR,,0.00,WeatherDisplay:10.37,2013-06-28 04:23:00,
2013-06-28 05:28:00,56.3,54.0,29.99,SW,232,10.4,10.4,92,0.00,CLR,,0.00,WeatherDisplay:10.37,2013-06-28 04:28:00,
2013-06-28 05:33:00,56.4,54.1,29.99,WSW,247,5.8,5.8,92,0.00,CLR,,0.00,WeatherDisplay:10.37,2013-06-28 04:33:00,
2013-06-28 05:38:00,56.4,54.1,29.99,SW,227,10.4,10.4,92,0.01,RA,,0.01,WeatherDisplay:10.37,2013-06-28 04:38:00,
2013-06-28 05:43:00,56.4,54.1,29.99,NNW,327,12.7,12.7,92,0.01,RA,,0.01,WeatherDisplay:10.37,2013-06-28 04:43:00,
2013-06-28 05:48:00,56.4,54.1,29.99,West,267,6.9,6.9,92,0.02,RA,,0.02,WeatherDisplay:10.37,2013-06-28 04:48:00,
2013-06-28 05:53:00,56.4,54.1,29.99,WSW,241,10.4,10.4,92,0.03,RA,,0.04,WeatherDisplay:10.37,2013-06-28 04:53:00,
2013-06-28 05:58:00,56.3,54.0,29.99,West,267,8.1,8.1,92,0.05,RA,,0.05,WeatherDisplay:10.37,2013-06-28 04:58:00,
2013-06-28 06:03:00,56.3,54.3,29.99,West,273,11.5,11.5,93,0.06,RA,,0.06,WeatherDisplay:10.37,2013-06-28 05:03:00,
2013-06-28 06:08:00,56.2,54.2,29.99,WNW,288,9.2,9.2,93,0.06,RA,,0.06,WeatherDisplay:10.37,2013-06-28 05:08:00,
2013-06-28 06:13:00,56.2,54.2,29.99,WSW,238,12.0,12.0,93,0.06,RA,,0.06,WeatherDisplay:10.37,2013-06-28 05:13:00,
2013-06-28 06:18:00,56.2,54.2,29.98,WNW,294,11.5,11.5,93,0.07,RA,,0.07,WeatherDisplay:10.37,2013-06-28 05:18:00,
2013-06-28 06:23:00,56.1,54.1,29.98,West,277,10.4,10.4,93,0.09,RA,,0.09,WeatherDisplay:10.37,2013-06-28 05:23:00,
2013-06-28 06:28:00,56.1,54.1,29.98,West,263,9.2,9.2,93,0.09,RA,,0.10,WeatherDisplay:10.37,2013-06-28 05:28:00,
2013-06-28 06:33:00,56.0,54.0,29.98,West,267,11.5,11.5,93,0.10,RA,,0.11,WeatherDisplay:10.37,2013-06-28 05:33:00,
2013-06-28 06:38:00,56.0,54.0,29.98,WSW,237,9.2,9.2,93,0.11,RA,,0.12,WeatherDisplay:10.37,2013-06-28 05:38:00,
2013-06-28 06:43:00,56.0,54.3,29.98,West,275,11.5,11.5,94,0.12,RA,,0.13,WeatherDisplay:10.37,2013-06-28 05:43:00,
2013-06-28 06:48:00,56.0,54.3,29.97,WSW,248,13.8,13.8,94,0.12,RA,,0.13,WeatherDisplay:10.37,2013-06-28 05:48:00,
2013-06-28 06:53:00,56.0,54.3,29.97,West,269,11.5,11.5,94,0.10,RA,,0.13,WeatherDisplay:10.37,2013-06-28 05:53:00,
2013-06-28 06:58:00,56.0,54.3,29.97,WNW,286,10.4,10.4,94,0.09,RA,,0.14,WeatherDisplay:10.37,2013-06-28 05:58:00,
2013-06-28 07:03:00,56.0,54.3,29.97,SSW,210,9.2,9.2,94,0.09,RA,,0.14,WeatherDisplay:10.37,2013-06-28 06:03:00,
2013-06-28 07:08:00,56.0,54.3,29.97,West,264,10.4,10.4,94,0.09,,,0.15,WeatherDisplay:10.37,2013-06-28 06:08:00,
2013-06-28 07:13:00,56.0,54.3,29.97,SW,236,13.8,13.8,94,0.09,RA,,0.15,WeatherDisplay:10.37,2013-06-28 06:13:00,
2013-06-28 07:18:00,56.0,54.3,29.97,South,188,6.9,6.9,94,0.08,RA,,0.15,WeatherDisplay:10.37,2013-06-28 06:18:00,
2013-06-28 07:23:00,56.0,54.3,29.97,West,269,9.2,9.2,94,0.06,CLR,,0.15,WeatherDisplay:10.37,2013-06-28 06:23:00,
2013-06-28 07:28:00,56.0,54.3,29.97,West,279,9.2,9.2,94,0.06,CLR,,0.15,WeatherDisplay:10.37,2013-06-28 06:28:00,
2013-06-28 07:33:00,56.1,54.4,29.97,WSW,251,11.0,11.0,94,0.05,CLR,,0.15,WeatherDisplay:10.37,2013-06-28 06:33:00,
2013-06-28 07:38:00,56.2,54.5,29.97,West,273,6.9,6.9,94,0.03,CLR,,0.15,WeatherDisplay:10.37,2013-06-28 06:38:00,
2013-06-28 07:43:00,56.2,54.5,29.97,West,263,12.7,12.7,94,0.02,CLR,,0.15,WeatherDisplay:10.37,2013-06-28 06:43:00,
2013-06-28 07:48:00,56.2,54.5,29.96,West,261,11.5,11.5,94,0.02,CLR,,0.15,WeatherDisplay:10.37,2013-06-28 06:48:00,
2013-06-28 07:53:00,56.2,54.5,29.96,WSW,249,12.7,12.7,94,0.02,CLR,,0.15,WeatherDisplay:10.37,2013-06-28 06:53:00,
2013-06-28 07:58:00,56.1,54.4,29.96,WSW,238,11.5,11.5,94,0.01,CLR,,0.15,WeatherDisplay:10.37,2013-06-28 06:58:00,
2013-06-28 08:03:00,56.1,54.4,29.96,WSW,245,15.0,15.0,94,0.01,CLR,,0.15,WeatherDisplay:10.37,2013-06-28 07:03:00,
2013-06-28 08:08:00,56.2,54.5,29.96,West,281,11.5,11.5,94,0.01,CLR,,0.15,WeatherDisplay:10.37,2013-06-28 07:08:00,
2013-06-28 08:13:00,56.2,54.5,29.96,WSW,251,12.7,12.7,94,0.00,CLR,,0.15,WeatherDisplay:10.37,2013-06-28 07:13:00,
2013-06-28 08:18:00,56.3,54.6,29.95,WSW,247,11.5,11.5,94,0.00,CLR,,0.15,WeatherDisplay:10.37,2013-06-28 07:18:00,
2013-06-28 08:23:00,56.3,54.6,29.95,West,266,13.8,13.8,94,0.00,CLR,,0.15,WeatherDisplay:10.37,2013-06-28 07:23:00,
2013-06-28 08:28:00,56.3,54.6,29.95,West,277,11.5,11.5,94,0.00,CLR,,0.15,WeatherDisplay:10.37,2013-06-28 07:28:00,
2013-06-28 08:33:00,56.4,54.7,29.95,SSW,213,15.0,15.0,94,0.00,CLR,,0.15,WeatherDisplay:10.37,2013-06-28 07:33:00,
2013-06-28 08:38:00,56.4,54.4,29.95,West,261,11.5,11.5,93,0.00,CLR,,0.15,WeatherDisplay:10.37,2013-06-28 07:38:00,
2013-06-28 08:43:00,56.4,54.4,29.95,West,275,12.7,12.7,93,0.00,CLR,,0.15,WeatherDisplay:10.37,2013-06-28 07:43:00,
2013-06-28 08:48:00,56.5,54.5,29.94,West,277,11.5,11.5,93,0.00,CLR,,0.15,WeatherDisplay:10.37,2013-06-28 07:48:00,
2013-06-28 08:53:00,56.6,54.6,29.94,WNW,284,5.8,5.8,93,0.00,CLR,,0.15,WeatherDisplay:10.37,2013-06-28 07:53:00,
2013-06-28 08:58:00,56.7,54.7,29.94,WNW,282,4.0,4.0,93,0.00,CLR,,0.15,WeatherDisplay:10.37,2013-06-28 07:58:00,
2013-06-28 09:03:00,56.7,54.7,29.94,WNW,298,10.4,10.4,93,0.00,CLR,,0.15,WeatherDisplay:10.37,2013-06-28 08:03:00,
2013-06-28 09:08:00,56.9,54.9,29.94,WSW,247,6.9,6.9,93,0.00,CLR,,0.15,WeatherDisplay:10.37,2013-06-28 08:08:00,
2013-06-28 09:13:00,56.9,54.9,29.94,West,273,6.9,6.9,93,0.00,CLR,,0.15,WeatherDisplay:10.37,2013-06-28 08:13:00,
2013-06-28 09:18:00,57.1,55.1,29.93,SW,221,10.0,10.0,93,0.00,CLR,,0.15,WeatherDisplay:10.37,2013-06-28 08:18:00,
2013-06-28 09:23:00,57.1,55.1,29.93,West,265,5.8,5.8,93,0.00,CLR,,0.15,WeatherDisplay:10.37,2013-06-28 08:23:00,
2013-06-28 09:28:00,57.2,55.2,29.93,West,269,16.1,16.1,93,0.00,CLR,,0.15,WeatherDisplay:10.37,2013-06-28 08:28:00,
2013-06-28 09:33:00,57.3,55.0,29.92,SW,225,10.0,10.0,92,0.00,CLR,,0.15,WeatherDisplay:10.37,2013-06-28 08:33:00,
2013-06-28 09:38:00,57.4,55.1,29.92,North,360,19.6,19.6,92,0.00,CLR,,0.15,WeatherDisplay:10.37,2013-06-28 08:38:00,
2013-06-28 09:43:00,57.5,55.2,29.92,SW,225,9.2,9.2,92,0.00,CLR,,0.15,WeatherDisplay:10.37,2013-06-28 08:43:00,
2013-06-28 09:48:00,57.6,55.3,29.92,NNW,344,17.3,17.3,92,0.00,CLR,,0.15,WeatherDisplay:10.37,2013-06-28 08:48:00,
2013-06-28 09:53:00,57.6,55.3,29.92,South,190,12.7,12.7,92,0.00,CLR,,0.15,WeatherDisplay:10.37,2013-06-28 08:53:00,
2013-06-28 09:58:00,57.6,55.3,29.92,West,272,11.0,11.0,92,0.00,CLR,,0.15,WeatherDisplay:10.37,2013-06-28 08:58:00,
2013-06-28 10:03:00,57.7,55.4,29.92,WSW,239,13.8,13.8,92,0.00,CLR,,0.15,WeatherDisplay:10.37,2013-06-28 09:03:00,
2013-06-28 10:08:00,57.7,55.4,29.92,SW,220,13.8,13.8,92,0.00,CLR,,0.15,WeatherDisplay:10.37,2013-06-28 09:08:00,
2013-06-28 10:13:00,57.7,55.7,29.92,WSW,250,10.4,10.4,93,0.00,CLR,,0.15,WeatherDisplay:10.37,2013-06-28 09:13:00,
2013-06-28 10:18:00,57.8,55.8,29.91,West,262,13.0,13.0,93,0.00,CLR,,0.15,WeatherDisplay:10.37,2013-06-28 09:18:00,
2013-06-28 10:23:00,58.0,56.0,29.91,SW,230,17.3,17.3,93,0.00,CLR,,0.15,WeatherDisplay:10.37,2013-06-28 09:23:00,
2013-06-28 10:28:00,58.1,56.1,29.91,WSW,242,11.5,11.5,93,0.00,CLR,,0.15,WeatherDisplay:10.37,2013-06-28 09:28:00,
2013-06-28 10:33:00,58.2,56.2,29.91,WSW,258,10.4,10.4,93,0.00,CLR,,0.15,WeatherDisplay:10.37,2013-06-28 09:33:00,
2013-06-28 10:38:00,58.4,56.4,29.91,WSW,240,8.1,8.1,93,0.00,CLR,,0.15,WeatherDisplay:10.37,2013-06-28 09:38:00,
2013-06-28 10:43:00,58.6,56.6,29.91,West,271,15.0,15.0,93,0.00,CLR,,0.15,WeatherDisplay:10.37,2013-06-28 09:43:00,
2013-06-28 10:48:00,58.7,56.4,29.91,WNW,296,12.7,12.7,92,0.00,CLR,,0.15,WeatherDisplay:10.37,2013-06-28 09:48:00,
2013-06-28 10:53:00,58.7,56.1,29.91,West,279,12.7,12.7,91,0.00,CLR,,0.15,WeatherDisplay:10.37,2013-06-28 09:53:00,
2013-06-28 10:58:00,58.6,56.0,29.91,WSW,255,15.0,15.0,91,0.00,CLR,,0.15,WeatherDisplay:10.37,2013-06-28 09:58:00,
2013-06-28 11:03:00,58.5,55.9,29.91,West,267,13.8,13.8,91,0.00,CLR,,0.15,WeatherDisplay:10.37,2013-06-28 10:03:00,
2013-06-28 11:08:00,58.4,55.8,29.91,West,266,17.3,17.3,91,0.00,CLR,,0.15,WeatherDisplay:10.37,2013-06-28 10:08:00,
2013-06-28 11:13:00,58.4,55.8,29.91,West,260,17.3,17.3,91,0.00,CLR,,0.15,WeatherDisplay:10.37,2013-06-28 10:13:00,
2013-06-28 11:18:00,58.5,55.9,29.89,SSW,205,16.1,16.1,91,0.00,CLR,,0.15,WeatherDisplay:10.37,2013-06-28 10:18:00,
2013-06-28 11:23:00,58.6,56.0,29.89,SW,223,15.0,15.0,91,0.00,CLR,,0.15,WeatherDisplay:10.37,2013-06-28 10:23:00,
2013-06-28 11:28:00,58.6,56.0,29.89,SSW,204,11.5,11.5,91,0.00,CLR,,0.15,WeatherDisplay:10.37,2013-06-28 10:28:00,
2013-06-28 11:33:00,58.6,55.7,29.89,WSW,253,16.0,16.0,90,0.00,CLR,,0.15,WeatherDisplay:10.37,2013-06-28 10:33:00,
2013-06-28 11:38:00,58.6,55.7,29.89,WNW,283,11.5,11.5,90,0.00,CLR,,0.15,WeatherDisplay:10.37,2013-06-28 10:38:00,
2013-06-28 11:43:00,58.5,55.6,29.89,West,263,16.1,16.1,90,0.00,CLR,,0.15,WeatherDisplay:10.37,2013-06-28 10:43:00,
2013-06-28 11:48:00,58.5,55.6,29.88,SW,236,19.0,19.0,90,0.00,CLR,,0.15,WeatherDisplay:10.37,2013-06-28 10:48:00,
2013-06-28 11:53:00,58.5,55.6,29.88,SW,225,15.0,15.0,90,0.00,CLR,,0.15,WeatherDisplay:10.37,2013-06-28 10:53:00,
2013-06-28 11:58:00,58.5,55.6,29.88,West,274,17.3,17.3,90,0.00,CLR,,0.15,WeatherDisplay:10.37,2013-06-28 10:58:00,
2013-06-28 12:03:00,58.6,55.7,29.88,WNW,293,17.3,17.3,90,0.00,CLR,,0.15,WeatherDisplay:10.37,2013-06-28 11:03:00,
2013-06-28 12:08:00,58.8,55.6,29.88,NW,321,11.5,11.5,89,0.00,CLR,,0.15,WeatherDisplay:10.37,2013-06-28 11:08:00,
2013-06-28 12:13:00,58.8,55.6,29.88,SSW,203,17.3,17.3,89,0.00,CLR,,0.15,WeatherDisplay:10.37,2013-06-28 11:13:00,
2013-06-28 12:18:00,58.8,55.6,29.88,West,275,17.3,17.3,89,0.00,CLR,,0.15,WeatherDisplay:10.37,2013-06-28 11:18:00,
2013-06-28 12:23:00,58.8,55.6,29.88,West,259,16.1,16.1,89,0.00,CLR,,0.15,WeatherDisplay:10.37,2013-06-28 11:23:00,
2013-06-28 12:28:00,59.0,55.8,29.88,WSW,252,17.0,17.0,89,0.00,CLR,,0.15,WeatherDisplay:10.37,2013-06-28 11:28:00,
2013-06-28 12:33:00,59.3,56.1,29.88,South,188,13.8,13.8,89,0.00,CLR,,0.15,WeatherDisplay:10.37,2013-06-28 11:33:00,
2013-06-28 12:38:00,59.4,55.8,29.88,West,259,17.3,17.3,88,0.00,CLR,,0.15,WeatherDisplay:10.37,2013-06-28 11:38:00,
2013-06-28 12:44:00,59.4,55.8,29.88,NNW,327,9.2,9.2,88,0.00,CLR,,0.15,WeatherDisplay:10.37,2013-06-28 11:44:00,
2013-06-28 12:49:00,59.2,55.6,29.87,WNW,283,18.4,18.4,88,0.00,CLR,,0.15,WeatherDisplay:10.37,2013-06-28 11:49:00,
2013-06-28 12:54:00,59.2,55.6,29.87,WSW,252,21.9,21.9,88,0.00,CLR,,0.15,WeatherDisplay:10.37,2013-06-28 11:54:00,
2013-06-28 12:59:00,59.3,55.7,29.87,West,271,11.5,11.5,88,0.00,CLR,,0.15,WeatherDisplay:10.37,2013-06-28 11:59:00,
2013-06-28 13:04:00,59.5,55.9,29.87,West,269,17.3,17.3,88,0.00,CLR,,0.15,WeatherDisplay:10.37,2013-06-28 12:04:00,
2013-06-28 13:09:00,60.0,56.4,29.87,SSW,210,19.6,19.6,88,0.00,CLR,,0.15,WeatherDisplay:10.37,2013-06-28 12:09:00,
2013-06-28 13:14:00,60.4,56.5,29.86,SW,234,19.6,19.6,87,0.00,CLR,,0.15,WeatherDisplay:10.37,2013-06-28 12:14:00,
2013-06-28 13:19:00,60.4,56.2,29.86,West,276,19.6,19.6,86,0.00,CLR,,0.15,WeatherDisplay:10.37,2013-06-28 12:19:00,
2013-06-28 13:24:00,60.4,56.2,29.86,West,270,26.5,26.5,86,0.00,CLR,,0.15,WeatherDisplay:10.37,2013-06-28 12:24:00,
2013-06-28 13:29:00,60.2,56.0,29.86,WNW,288,19.6,19.6,86,0.00,CLR,,0.15,WeatherDisplay:10.37,2013-06-28 12:29:00,
2013-06-28 13:34:00,60.2,56.3,29.86,West,267,13.8,13.8,87,0.00,CLR,,0.15,WeatherDisplay:10.37,2013-06-28 12:34:00,
2013-06-28 13:39:00,60.4,56.2,29.86,SSW,213,24.2,24.2,86,0.00,CLR,,0.15,WeatherDisplay:10.37,2013-06-28 12:39:00,
2013-06-28 13:44:00,60.4,56.2,29.86,WNW,295,18.4,18.4,86,0.00,CLR,,0.15,WeatherDisplay:10.37,2013-06-28 12:44:00,
2013-06-28 13:49:00,60.4,56.2,29.86,WSW,250,21.9,21.9,86,0.00,CLR,,0.15,WeatherDisplay:10.37,2013-06-28 12:49:00,
2013-06-28 13:54:00,60.4,56.2,29.86,WSW,248,11.5,11.5,86,0.00,CLR,,0.15,WeatherDisplay:10.37,2013-06-28 12:54:00,
2013-06-28 13:59:00,60.6,56.4,29.86,WNW,298,17.3,17.3,86,0.00,CLR,,0.15,WeatherDisplay:10.37,2013-06-28 12:59:00,
2013-06-28 14:04:00,60.8,56.6,29.86,WSW,254,17.3,17.3,86,0.00,CLR,,0.15,WeatherDisplay:10.37,2013-06-28 13:04:00,
2013-06-28 14:09:00,61.0,56.5,29.86,West,263,12.7,12.7,85,0.00,CLR,,0.15,WeatherDisplay:10.37,2013-06-28 13:09:00,
2013-06-28 14:14:00,60.8,55.9,29.86,WSW,250,19.6,19.6,84,0.00,CLR,,0.15,WeatherDisplay:10.37,2013-06-28 13:14:00,
2013-06-28 14:19:00,60.6,56.1,29.86,West,267,12.7,12.7,85,0.00,CLR,,0.15,WeatherDisplay:10.37,2013-06-28 13:19:00,
2013-06-28 14:24:00,60.6,56.1,29.86,WNW,291,11.5,11.5,85,0.00,CLR,,0.15,WeatherDisplay:10.37,2013-06-28 13:24:00,
2013-06-28 14:29:00,60.7,56.2,29.86,West,265,13.8,13.8,85,0.00,CLR,,0.15,WeatherDisplay:10.37,2013-06-28 13:29:00,
2013-06-28 14:34:00,60.7,56.2,29.86,WSW,255,17.3,17.3,85,0.00,CLR,,0.15,WeatherDisplay:10.37,2013-06-28 13:34:00,
2013-06-28 14:39:00,61.1,56.2,29.86,West,270,17.3,17.3,84,0.00,CLR,,0.15,WeatherDisplay:10.37,2013-06-28 13:39:00,
2013-06-28 14:44:00,61.6,56.4,29.86,West,269,19.6,19.6,83,0.00,CLR,,0.15,WeatherDisplay:10.37,2013-06-28 13:44:00,
2013-06-28 14:49:00,62.0,56.8,29.86,SW,223,16.1,16.1,83,0.00,CLR,,0.15,WeatherDisplay:10.37,2013-06-28 13:49:00,
2013-06-28 14:54:00,62.3,56.4,29.86,West,279,19.6,19.6,81,0.00,CLR,,0.15,WeatherDisplay:10.37,2013-06-28 13:54:00,
2013-06-28 14:59:00,62.4,56.8,29.85,SW,222,18.4,18.4,82,0.00,CLR,,0.15,WeatherDisplay:10.37,2013-06-28 13:59:00,
2013-06-28 15:04:00,63.0,57.1,29.85,WNW,294,18.4,18.4,81,0.00,CLR,,0.15,WeatherDisplay:10.37,2013-06-28 14:04:00,
2013-06-28 15:09:00,63.9,58.0,29.85,SSW,196,18.4,18.4,81,0.00,CLR,,0.15,WeatherDisplay:10.37,2013-06-28 14:09:00,
2013-06-28 15:14:00,64.7,57.3,29.85,West,263,21.9,21.9,77,0.00,CLR,,0.15,WeatherDisplay:10.37,2013-06-28 14:14:00,
2013-06-28 15:19:00,65.3,57.2,29.85,WSW,254,20.7,20.7,75,0.00,CLR,,0.15,WeatherDisplay:10.37,2013-06-28 14:19:00,
2013-06-28 15:24:00,65.8,57.3,29.85,West,278,20.7,20.7,74,0.00,CLR,,0.15,WeatherDisplay:10.37,2013-06-28 14:24:00,
2013-06-28 15:29:00,65.9,57.4,29.86,WNW,284,20.7,20.7,74,0.00,CLR,,0.15,WeatherDisplay:10.37,2013-06-28 14:29:00,
2013-06-28 15:34:00,66.2,57.7,29.86,South,188,18.4,18.4,74,0.00,CLR,,0.15,WeatherDisplay:10.37,2013-06-28 14:34:00,
2013-06-28 15:39:00,66.4,57.5,29.86,WSW,255,15.0,15.0,73,0.00,CLR,,0.15,WeatherDisplay:10.37,2013-06-28 14:39:00,
2013-06-28 15:44:00,66.8,57.9,29.86,WNW,285,15.0,15.0,73,0.00,CLR,,0.15,WeatherDisplay:10.37,2013-06-28 14:44:00,
2013-06-28 15:49:00,67.1,57.8,29.86,WNW,289,19.6,19.6,72,0.00,CLR,,0.15,WeatherDisplay:10.37,2013-06-28 14:49:00,
2013-06-28 15:54:00,67.0,57.7,29.86,West,272,18.4,18.4,72,0.00,CLR,,0.15,WeatherDisplay:10.37,2013-06-28 14:54:00,
2013-06-28 15:59:00,67.0,57.3,29.86,West,267,17.3,17.3,71,0.00,CLR,,0.15,WeatherDisplay:10.37,2013-06-28 14:59:00,
2013-06-28 16:04:00,67.1,57.8,29.86,WSW,250,15.0,15.0,72,0.00,CLR,,0.15,WeatherDisplay:10.37,2013-06-28 15:04:00,
2013-06-28 16:09:00,67.3,57.2,29.86,SW,234,18.4,18.4,70,0.00,CLR,,0.15,WeatherDisplay:10.37,2013-06-28 15:09:00,
2013-06-28 16:14:00,67.4,56.9,29.86,WNW,288,17.3,17.3,69,0.00,CLR,,0.15,WeatherDisplay:10.37,2013-06-28 15:14:00,
2013-06-28 16:19:00,67.2,56.7,29.86,West,268,18.4,18.4,69,0.00,CLR,,0.15,WeatherDisplay:10.37,2013-06-28 15:19:00,
2013-06-28 16:24:00,66.7,57.0,29.86,West,279,16.1,16.1,71,0.00,CLR,,0.15,WeatherDisplay:10.37,2013-06-28 15:24:00,
2013-06-28 16:29:00,65.9,56.2,29.87,WNW,288,20.0,20.0,71,0.00,CLR,,0.15,WeatherDisplay:10.37,2013-06-28 15:29:00,
2013-06-28 16:34:00,65.5,55.8,29.87,WSW,251,19.6,19.6,71,0.00,CLR,,0.15,WeatherDisplay:10.37,2013-06-28 15:34:00,
2013-06-28 16:39:00,65.7,56.8,29.87,WSW,250,16.0,16.0,73,0.00,CLR,,0.15,WeatherDisplay:10.37,2013-06-28 15:39:00,
2013-06-28 16:44:00,66.0,56.3,29.87,WSW,246,23.0,23.0,71,0.00,CLR,,0.15,WeatherDisplay:10.37,2013-06-28 15:44:00,
2013-06-28 16:49:00,66.1,56.0,29.87,West,273,16.1,16.1,70,0.00,CLR,,0.15,WeatherDisplay:10.37,2013-06-28 15:49:00,
2013-06-28 16:54:00,65.8,56.1,29.87,WNW,285,24.2,24.2,71,0.00,CLR,,0.15,WeatherDisplay:10.37,2013-06-28 15:54:00,
2013-06-28 16:59:00,65.0,55.4,29.88,WNW,286,21.0,21.0,71,0.00,CLR,,0.15,WeatherDisplay:10.37,2013-06-28 15:59:00,
2013-06-28 17:04:00,64.3,55.5,29.88,West,278,21.9,21.9,73,0.00,CLR,,0.15,WeatherDisplay:10.37,2013-06-28 16:04:00,
2013-06-28 17:09:00,63.8,55.0,29.88,WNW,286,19.6,19.6,73,0.00,CLR,,0.15,WeatherDisplay:10.37,2013-06-28 16:09:00,
2013-06-28 17:14:00,63.4,55.0,29.88,West,275,22.0,22.0,74,0.00,CLR,,0.15,WeatherDisplay:10.37,2013-06-28 16:14:00,
2013-06-28 17:19:00,62.9,54.9,29.88,West,261,19.6,19.6,75,0.00,CLR,,0.15,WeatherDisplay:10.37,2013-06-28 16:19:00,
2013-06-28 17:24:00,62.6,54.6,29.88,West,279,15.0,15.0,75,0.00,CLR,,0.15,WeatherDisplay:10.37,2013-06-28 16:24:00,
2013-06-28 17:29:00,62.4,54.7,29.89,West,261,15.0,15.0,76,0.00,CLR,,0.15,WeatherDisplay:10.37,2013-06-28 16:29:00,
2013-06-28 17:34:00,62.2,54.5,29.89,WSW,252,13.0,13.0,76,0.00,CLR,,0.15,WeatherDisplay:10.37,2013-06-28 16:34:00,
2013-06-28 17:39:00,62.0,54.7,29.89,WNW,282,10.4,10.4,77,0.00,CLR,,0.15,WeatherDisplay:10.37,2013-06-28 16:39:00,
2013-06-28 17:44:00,61.8,54.5,29.89,WSW,249,15.0,15.0,77,0.00,CLR,,0.15,WeatherDisplay:10.37,2013-06-28 16:44:00,
2013-06-28 17:49:00,61.7,54.4,29.89,WNW,284,15.0,15.0,77,0.00,CLR,,0.15,WeatherDisplay:10.37,2013-06-28 16:49:00,
2013-06-28 17:54:00,61.6,54.7,29.89,West,281,13.0,13.0,78,0.00,CLR,,0.15,WeatherDisplay:10.37,2013-06-28 16:54:00,
2013-06-28 17:59:00,61.6,54.7,29.89,SW,236,12.7,12.7,78,0.00,CLR,,0.15,WeatherDisplay:10.37,2013-06-28 16:59:00,
2013-06-28 18:04:00,61.8,53.8,29.89,West,276,17.3,17.3,75,0.00,CLR,,0.15,WeatherDisplay:10.37,2013-06-28 17:04:00,
2013-06-28 18:09:00,62.0,54.0,29.89,West,279,13.8,13.8,75,0.00,CLR,,0.15,WeatherDisplay:10.37,2013-06-28 17:09:00,
2013-06-28 18:14:00,62.3,54.3,29.89,WSW,240,16.1,16.1,75,0.00,CLR,,0.15,WeatherDisplay:10.37,2013-06-28 17:14:00,
2013-06-28 18:19:00,62.2,53.1,29.89,WSW,248,17.3,17.3,72,0.00,CLR,,0.15,WeatherDisplay:10.37,2013-06-28 17:19:00,
2013-06-28 18:24:00,62.1,52.6,29.89,WNW,285,18.4,18.4,71,0.00,CLR,,0.15,WeatherDisplay:10.37,2013-06-28 17:24:00,
2013-06-28 18:29:00,62.3,52.8,29.90,West,269,18.4,18.4,71,0.00,CLR,,0.15,WeatherDisplay:10.37,2013-06-28 17:29:00,
2013-06-28 18:34:00,62.2,52.3,29.90,WSW,245,16.1,16.1,70,0.00,CLR,,0.15,WeatherDisplay:10.37,2013-06-28 17:34:00,
2013-06-28 18:39:00,62.0,52.5,29.90,WNW,299,16.1,16.1,71,0.00,CLR,,0.15,WeatherDisplay:10.37,2013-06-28 17:39:00,
2013-06-28 18:44:00,61.8,51.1,29.91,WSW,242,20.7,20.7,68,0.00,CLR,,0.15,WeatherDisplay:10.37,2013-06-28 17:44:00,
2013-06-28 18:49:00,61.6,51.7,29.91,West,265,16.1,16.1,70,0.00,CLR,,0.15,WeatherDisplay:10.37,2013-06-28 17:49:00,
2013-06-28 18:54:00,61.4,51.5,29.91,WNW,284,13.8,13.8,70,0.00,CLR,,0.15,WeatherDisplay:10.37,2013-06-28 17:54:00,
2013-06-28 18:59:00,61.1,50.5,29.92,NW,307,19.6,19.6,68,0.00,CLR,,0.15,WeatherDisplay:10.37,2013-06-28 17:59:00,
2013-06-28 19:04:00,61.0,50.4,29.92,West,270,14.0,14.0,68,0.00,CLR,,0.15,WeatherDisplay:10.37,2013-06-28 18:04:00,
2013-06-28 19:09:00,60.9,49.5,29.92,SW,232,20.7,20.7,66,0.00,CLR,,0.15,WeatherDisplay:10.37,2013-06-28 18:09:00,
2013-06-28 19:14:00,60.7,48.9,29.92,SW,223,19.6,19.6,65,0.00,CLR,,0.15,WeatherDisplay:10.37,2013-06-28 18:14:00,
2013-06-28 19:19:00,60.3,48.9,29.92,WNW,296,19.6,19.6,66,0.00,CLR,,0.15,WeatherDisplay:10.37,2013-06-28 18:19:00,
2013-06-28 19:24:00,60.2,48.0,29.92,West,276,17.3,17.3,64,0.00,CLR,,0.15,WeatherDisplay:10.37,2013-06-28 18:24:00,
2013-06-28 19:29:00,60.1,48.3,29.92,West,281,15.0,15.0,65,0.00,CLR,,0.15,WeatherDisplay:10.37,2013-06-28 18:29:00,
2013-06-28 19:34:00,59.9,47.7,29.92,SW,228,16.1,16.1,64,0.00,CLR,,0.15,WeatherDisplay:10.37,2013-06-28 18:34:00,
2013-06-28 19:39:00,59.7,47.9,29.92,WNW,286,13.8,13.8,65,0.00,CLR,,0.15,WeatherDisplay:10.37,2013-06-28 18:39:00,
2013-06-28 19:44:00,59.5,47.7,29.93,WSW,246,13.8,13.8,65,0.00,CLR,,0.15,WeatherDisplay:10.37,2013-06-28 18:44:00,
2013-06-28 19:49:00,59.4,47.6,29.93,WSW,252,16.1,16.1,65,0.00,CLR,,0.15,WeatherDisplay:10.37,2013-06-28 18:49:00,
2013-06-28 19:54:00,59.0,46.8,29.93,West,268,13.8,13.8,64,0.00,CLR,,0.15,WeatherDisplay:10.37,2013-06-28 18:54:00,
2013-06-28 19:59:00,58.7,47.4,29.93,WSW,258,13.8,13.8,66,0.00,CLR,,0.15,WeatherDisplay:10.37,2013-06-28 18:59:00,
2013-06-28 20:04:00,58.4,46.3,29.93,West,274,17.3,17.3,64,0.00,CLR,,0.15,WeatherDisplay:10.37,2013-06-28 19:04:00,
2013-06-28 20:09:00,58.0,45.9,29.93,West,272,11.5,11.5,64,0.00,CLR,,0.15,WeatherDisplay:10.37,2013-06-28 19:09:00,
2013-06-28 20:14:00,57.7,46.0,29.94,West,262,11.5,11.5,65,0.00,CLR,,0.15,WeatherDisplay:10.37,2013-06-28 19:14:00,
2013-06-28 20:19:00,57.5,46.2,29.94,West,276,11.5,11.5,66,0.00,CLR,,0.15,WeatherDisplay:10.37,2013-06-28 19:19:00,
2013-06-28 20:24:00,57.2,45.5,29.94,West,267,10.4,10.4,65,0.00,CLR,,0.15,WeatherDisplay:10.37,2013-06-28 19:24:00,
2013-06-28 20:29:00,57.0,45.3,29.94,WNW,284,11.5,11.5,65,0.00,CLR,,0.15,WeatherDisplay:10.37,2013-06-28 19:29:00,
2013-06-28 20:34:00,56.7,45.5,29.94,WNW,290,15.0,15.0,66,0.00,CLR,,0.15,WeatherDisplay:10.37,2013-06-28 19:34:00,
2013-06-28 20:39:00,56.4,45.2,29.94,WSW,244,11.5,11.5,66,0.00,CLR,,0.15,WeatherDisplay:10.37,2013-06-28 19:39:00,
2013-06-28 20:44:00,56.3,45.1,29.95,WNW,284,9.2,9.2,66,0.00,CLR,,0.15,WeatherDisplay:10.37,2013-06-28 19:44:00,
2013-06-28 20:49:00,56.2,45.0,29.95,NW,311,12.7,12.7,66,0.00,CLR,,0.15,WeatherDisplay:10.37,2013-06-28 19:49:00,
2013-06-28 20:54:00,56.0,44.8,29.95,West,267,16.1,16.1,66,0.00,CLR,,0.15,WeatherDisplay:10.37,2013-06-28 19:54:00,
2013-06-28 20:59:00,55.9,44.7,29.96,WSW,248,9.2,9.2,66,0.00,CLR,,0.15,WeatherDisplay:10.37,2013-06-28 19:59:00,
2013-06-28 21:04:00,55.8,44.2,29.96,WNW,284,12.7,12.7,65,0.00,CLR,,0.15,WeatherDisplay:10.37,2013-06-28 20:04:00,
2013-06-28 21:09:00,55.6,44.4,29.96,SSW,204,12.7,12.7,66,0.00,CLR,,0.15,WeatherDisplay:10.37,2013-06-28 20:09:00,
2013-06-28 21:14:00,55.4,44.2,29.96,WNW,290,13.8,13.8,66,0.00,CLR,,0.15,WeatherDisplay:10.37,2013-06-28 20:14:00,
2013-06-28 21:19:00,55.3,44.1,29.96,WNW,288,17.3,17.3,66,0.00,CLR,,0.15,WeatherDisplay:10.37,2013-06-28 20:19:00,
2013-06-28 21:24:00,55.1,43.9,29.96,SW,230,15.0,15.0,66,0.00,CLR,,0.15,WeatherDisplay:10.37,2013-06-28 20:24:00,
2013-06-28 21:29:00,54.9,44.1,29.97,WNW,294,15.0,15.0,67,0.00,CLR,,0.15,WeatherDisplay:10.37,2013-06-28 20:29:00,
2013-06-28 21:34:00,54.8,44.0,29.97,West,281,12.7,12.7,67,0.00,CLR,,0.15,WeatherDisplay:10.37,2013-06-28 20:34:00,
2013-06-28 21:39:00,54.6,43.9,29.97,West,267,11.5,11.5,67,0.00,CLR,,0.15,WeatherDisplay:10.37,2013-06-28 20:39:00,
2013-06-28 21:44:00,54.5,44.2,29.97,WNW,285,9.2,9.2,68,0.00,CLR,,0.15,WeatherDisplay:10.37,2013-06-28 20:44:00,
2013-06-28 21:49:00,54.4,44.1,29.97,West,267,11.5,11.5,68,0.00,CLR,,0.15,WeatherDisplay:10.37,2013-06-28 20:49:00,
2013-06-28 21:54:00,54.2,43.9,29.97,West,269,18.4,18.4,68,0.00,CLR,,0.15,WeatherDisplay:10.37,2013-06-28 20:54:00,
2013-06-28 21:59:00,54.1,43.8,29.97,West,279,17.3,17.3,68,0.00,CLR,,0.15,WeatherDisplay:10.37,2013-06-28 20:59:00,
2013-06-28 22:04:00,54.0,43.7,29.97,West,277,16.1,16.1,68,0.00,CLR,,0.15,WeatherDisplay:10.37,2013-06-28 21:04:00,
2013-06-28 22:09:00,53.9,44.0,29.97,West,279,12.0,12.0,69,0.00,CLR,,0.15,WeatherDisplay:10.37,2013-06-28 21:09:00,
2013-06-28 22:14:00,53.7,43.8,29.97,WNW,285,15.0,15.0,69,0.00,CLR,,0.15,WeatherDisplay:10.37,2013-06-28 21:14:00,
2013-06-28 22:19:00,53.7,43.8,29.97,West,260,18.0,18.0,69,0.00,CLR,,0.15,WeatherDisplay:10.37,2013-06-28 21:19:00,
2013-06-28 22:24:00,53.6,43.7,29.97,West,269,19.6,19.6,69,0.00,CLR,,0.15,WeatherDisplay:10.37,2013-06-28 21:24:00,
2013-06-28 22:29:00,53.6,43.7,29.98,West,275,19.6,19.6,69,0.00,CLR,,0.15,WeatherDisplay:10.37,2013-06-28 21:29:00,
2013-06-28 22:34:00,53.5,43.6,29.98,West,279,17.3,17.3,69,0.00,CLR,,0.15,WeatherDisplay:10.37,2013-06-28 21:34:00,
2013-06-28 22:39:00,53.4,43.5,29.98,West,275,13.8,13.8,69,0.00,CLR,,0.15,WeatherDisplay:10.37,2013-06-28 21:39:00,
2013-06-28 22:44:00,53.3,43.4,29.98,WNW,287,12.7,12.7,69,0.00,CLR,,0.15,WeatherDisplay:10.37,2013-06-28 21:44:00,
2013-06-28 22:49:00,53.2,43.3,29.98,WNW,284,13.8,13.8,69,0.00,CLR,,0.15,WeatherDisplay:10.37,2013-06-28 21:49:00,
2013-06-28 22:54:00,53.1,43.2,29.98,West,270,17.3,17.3,69,0.00,CLR,,0.15,WeatherDisplay:10.37,2013-06-28 21:54:00,
2013-06-28 22:59:00,53.1,43.6,29.99,West,261,11.5,11.5,70,0.00,CLR,,0.15,WeatherDisplay:10.37,2013-06-28 21:59:00,
2013-06-28 23:04:00,53.0,43.8,29.99,WSW,253,11.5,11.5,71,0.00,CLR,,0.15,WeatherDisplay:10.37,2013-06-28 22:04:00,
2013-06-28 23:09:00,52.8,43.7,29.99,WNW,288,11.0,11.0,71,0.00,CLR,,0.15,WeatherDisplay:10.37,2013-06-28 22:09:00,
2013-06-28 23:14:00,52.7,43.6,30.00,SW,229,11.5,11.5,71,0.00,CLR,,0.15,WeatherDisplay:10.37,2013-06-28 22:14:00,
2013-06-28 23:19:00,52.6,44.2,30.00,SW,231,12.7,12.7,73,0.00,CLR,,0.15,WeatherDisplay:10.37,2013-06-28 22:19:00,
2013-06-28 23:24:00,52.5,44.4,30.00,West,275,10.4,10.4,74,0.00,CLR,,0.15,WeatherDisplay:10.37,2013-06-28 22:24:00,
2013-06-28 23:29:00,52.5,44.8,30.00,West,281,11.5,11.5,75,0.00,CLR,,0.15,WeatherDisplay:10.37,2013-06-28 22:29:00,
2013-06-28 23:34:00,52.4,45.1,30.00,WSW,254,16.1,16.1,76,0.00,CLR,,0.15,WeatherDisplay:10.37,2013-06-28 22:34:00,
2013-06-28 23:39:00,52.4,45.1,30.00,SSW,207,9.2,9.2,76,0.00,CLR,,0.15,WeatherDisplay:10.37,2013-06-28 22:39:00,
2013-06-28 23:44:00,52.4,45.4,30.00,West,273,11.5,11.5,77,0.00,CLR,,0.15,WeatherDisplay:10.37,2013-06-28 22:44:00,
2013-06-28 23:49:00,52.3,45.3,30.00,West,261,9.2,9.2,77,0.00,CLR,,0.15,WeatherDisplay:10.37,2013-06-28 22:49:00,
2013-06-28 23:55:00,52.3,45.3,30.00,WSW,254,6.9,6.9,77,0.00,CLR,,0.15,WeatherDisplay:10.37,2013-06-28 22:55:00,